IGO45E VIDP-LGAV
Flight info
| Callsign | IGO45E |
|---|---|
| Flight time | N/A |
| Altitude | 32000 |
| Route | SURAM7A SURAM G333 MERUN L750 UPVAL/N0471F340 L750 RANAH B449 INRAK A240 KRS B143 TUNEK A909 RODAR/N0464F360 N644 BADIR DCT NOLGA UN61 TBN UW706 SIV UT54 IMR UG802 VEXOL/N0467F320 UY134 SOSIR UN604 OGSIL |
| Aircraft | A21N/M-SDE3FGHIRWY/LB1 |
Departure
| Time | N/A |
|---|---|
| Airport | Indira Gandhi International Airport (VIDP) |
Arrival
| Time | 2026-05-06 12:17 |
|---|---|
| Airport | Athens Eleftherios Venizelos International Airport (LGAV) |
| Time | Latitude | Longitude | Altitude | Speed | Heading |
|---|---|---|---|---|---|
| 2026-05-06 12:04 | 38.20754 | 24.81986 | 13156 ft | 409 kts | 233° |
| 2026-05-06 12:04 | 38.18986 | 24.79282 | 12616 ft | 403 kts | 233° |
| 2026-05-06 12:04 | 38.17198 | 24.76551 | 12182 ft | 394 kts | 232° |
| 2026-05-06 12:05 | 38.15490 | 24.73943 | 11814 ft | 383 kts | 233° |
| 2026-05-06 12:05 | 38.13811 | 24.71386 | 11569 ft | 370 kts | 233° |
| 2026-05-06 12:05 | 38.12181 | 24.68905 | 11317 ft | 358 kts | 233° |
| 2026-05-06 12:05 | 38.10618 | 24.66522 | 11073 ft | 347 kts | 233° |
| 2026-05-06 12:06 | 38.09102 | 24.64213 | 10867 ft | 335 kts | 233° |
| 2026-05-06 12:06 | 38.07641 | 24.61990 | 10669 ft | 325 kts | 233° |
| 2026-05-06 12:06 | 38.06211 | 24.59817 | 10488 ft | 314 kts | 233° |
| 2026-05-06 12:06 | 38.04837 | 24.57728 | 10329 ft | 303 kts | 233° |
| 2026-05-06 12:07 | 38.03525 | 24.55737 | 10185 ft | 292 kts | 233° |
| 2026-05-06 12:07 | 38.02234 | 24.53778 | 9986 ft | 285 kts | 233° |
| 2026-05-06 12:07 | 38.00998 | 24.51863 | 9608 ft | 284 kts | 237° |
| 2026-05-06 12:07 | 38.00240 | 24.49605 | 9203 ft | 278 kts | 265° |
| 2026-05-06 12:08 | 38.00403 | 24.47209 | 8823 ft | 272 kts | 291° |
| 2026-05-06 12:08 | 38.01244 | 24.45117 | 8481 ft | 268 kts | 302° |
| 2026-05-06 12:08 | 38.02194 | 24.43079 | 8129 ft | 267 kts | 302° |
| 2026-05-06 12:08 | 38.03125 | 24.41052 | 7793 ft | 265 kts | 301° |
| 2026-05-06 12:09 | 38.04024 | 24.39057 | 7465 ft | 264 kts | 301° |
| 2026-05-06 12:09 | 38.04932 | 24.37015 | 7131 ft | 262 kts | 300° |
| 2026-05-06 12:09 | 38.05809 | 24.35013 | 6806 ft | 261 kts | 300° |
| 2026-05-06 12:09 | 38.06679 | 24.32991 | 6475 ft | 259 kts | 299° |
| 2026-05-06 12:10 | 38.07537 | 24.30989 | 6145 ft | 258 kts | 299° |
| 2026-05-06 12:10 | 38.08383 | 24.29017 | 5829 ft | 258 kts | 299° |
| 2026-05-06 12:10 | 38.09241 | 24.27023 | 5497 ft | 257 kts | 299° |
| 2026-05-06 12:10 | 38.10105 | 24.25059 | 5174 ft | 256 kts | 300° |
| 2026-05-06 12:11 | 38.10979 | 24.23087 | 4853 ft | 255 kts | 299° |
| 2026-05-06 12:11 | 38.11823 | 24.21180 | 4547 ft | 254 kts | 299° |
| 2026-05-06 12:11 | 38.12682 | 24.19234 | 4230 ft | 253 kts | 298° |
| 2026-05-06 12:11 | 38.13501 | 24.17295 | 3913 ft | 251 kts | 291° |
| 2026-05-06 12:12 | 38.13867 | 24.15139 | 3646 ft | 245 kts | 270° |
| 2026-05-06 12:12 | 38.13488 | 24.13098 | 3372 ft | 240 kts | 239° |
| 2026-05-06 12:12 | 38.12401 | 24.11562 | 3143 ft | 233 kts | 222° |
| 2026-05-06 12:12 | 38.11211 | 24.10188 | 2976 ft | 225 kts | 221° |
| 2026-05-06 12:13 | 38.10068 | 24.08965 | 2962 ft | 210 kts | 219° |
| 2026-05-06 12:13 | 38.08925 | 24.07822 | 2968 ft | 209 kts | 218° |
| 2026-05-06 12:13 | 38.07763 | 24.06703 | 2974 ft | 209 kts | 217° |
| 2026-05-06 12:13 | 38.06589 | 24.05589 | 2969 ft | 210 kts | 216° |
| 2026-05-06 12:14 | 38.05424 | 24.04489 | 2847 ft | 205 kts | 216° |
| 2026-05-06 12:14 | 38.04347 | 24.03470 | 2620 ft | 190 kts | 216° |
| 2026-05-06 12:14 | 38.03318 | 24.02495 | 2340 ft | 180 kts | 216° |
| 2026-05-06 12:14 | 38.02338 | 24.01566 | 2108 ft | 168 kts | 216° |
| 2026-05-06 12:15 | 38.01448 | 24.00720 | 1883 ft | 155 kts | 215° |
| 2026-05-06 12:15 | 38.00621 | 23.99935 | 1658 ft | 141 kts | 215° |
| 2026-05-06 12:15 | 37.99842 | 23.99196 | 1493 ft | 140 kts | 215° |
| 2026-05-06 12:15 | 37.99059 | 23.98453 | 1334 ft | 141 kts | 214° |
| 2026-05-06 12:16 | 37.98277 | 23.97708 | 1170 ft | 140 kts | 214° |
| 2026-05-06 12:16 | 37.97500 | 23.96964 | 987 ft | 140 kts | 214° |
| 2026-05-06 12:16 | 37.96719 | 23.96221 | 800 ft | 140 kts | 214° |
| 2026-05-06 12:16 | 37.95945 | 23.95490 | 620 ft | 139 kts | 214° |
| 2026-05-06 12:17 | 37.95175 | 23.94762 | 460 ft | 139 kts | 214° |
| 2026-05-06 12:17 | 37.94403 | 23.94029 | 289 ft | 137 kts | 214° |
| 2026-05-06 12:17 | 37.93734 | 23.93404 | 289 ft | 94 kts | 216° |
| 2026-05-06 12:17 | 37.93348 | 23.93035 | 289 ft | 45 kts | 218° |
| 2026-05-06 12:18 | 37.93205 | 23.92905 | 289 ft | 17 kts | 211° |
| 2026-05-06 12:18 | 37.93095 | 23.92853 | 289 ft | 16 kts | 198° |
| 2026-05-06 12:18 | 37.93000 | 23.92828 | 289 ft | 8 kts | 188° |
| 2026-05-06 12:18 | 37.92943 | 23.92839 | 289 ft | 8 kts | 138° |
| 2026-05-06 12:19 | 37.92936 | 23.92907 | 289 ft | 8 kts | 62° |
| 2026-05-06 12:19 | 37.92980 | 23.92965 | 289 ft | 9 kts | 34° |
| 2026-05-06 12:19 | 37.93038 | 23.93016 | 289 ft | 10 kts | 35° |
| 2026-05-06 12:19 | 37.93115 | 23.93087 | 289 ft | 16 kts | 37° |
| 2026-05-06 12:20 | 37.93207 | 23.93175 | 289 ft | 16 kts | 37° |
| 2026-05-06 12:20 | 37.93298 | 23.93262 | 289 ft | 16 kts | 36° |
| 2026-05-06 12:20 | 37.93361 | 23.93322 | 289 ft | 6 kts | 37° |
| 2026-05-06 12:20 | 37.93401 | 23.93361 | 289 ft | 7 kts | 38° |
| 2026-05-06 12:21 | 37.93429 | 23.93430 | 289 ft | 11 kts | 107° |
| 2026-05-06 12:21 | 37.93368 | 23.93544 | 289 ft | 19 kts | 127° |
| 2026-05-06 12:21 | 37.93269 | 23.93712 | 288 ft | 27 kts | 127° |
| 2026-05-06 12:21 | 37.93157 | 23.93901 | 289 ft | 25 kts | 127° |
| 2026-05-06 12:22 | 37.93051 | 23.94075 | 288 ft | 24 kts | 127° |
| 2026-05-06 12:22 | 37.92951 | 23.94242 | 288 ft | 23 kts | 127° |
| 2026-05-06 12:22 | 37.92886 | 23.94367 | 288 ft | 14 kts | 94° |
| 2026-05-06 12:22 | 37.92948 | 23.94472 | 288 ft | 18 kts | 36° |
| 2026-05-06 12:23 | 37.93069 | 23.94586 | 288 ft | 23 kts | 37° |
| 2026-05-06 12:23 | 37.93199 | 23.94708 | 288 ft | 22 kts | 36° |
| 2026-05-06 12:23 | 37.93312 | 23.94763 | 288 ft | 15 kts | 332° |
| 2026-05-06 12:23 | 37.93367 | 23.94721 | 288 ft | 9 kts | 316° |
| 2026-05-06 12:24 | 37.93403 | 23.94665 | 288 ft | 2 kts | 308° |
| 2026-05-06 12:24 | 37.93413 | 23.94650 | 288 ft | 0 kts | 309° |